sensor_id;sensor_type;location;lat;lon;timestamp;P1;durP1;ratioP1;P2;durP2;ratioP2
10132;SDS011;5106;50.926;7.080;2023-02-19T00:01:18;4.32;;;3.90;;
10132;SDS011;5106;50.926;7.080;2023-02-19T00:03:50;3.47;;;3.17;;
10132;SDS011;5106;50.926;7.080;2023-02-19T00:06:17;3.88;;;3.47;;
10132;SDS011;5106;50.926;7.080;2023-02-19T00:08:44;3.80;;;3.42;;
10132;SDS011;5106;50.926;7.080;2023-02-19T00:11:10;4.67;;;4.20;;
10132;SDS011;5106;50.926;7.080;2023-02-19T00:13:38;6.00;;;4.35;;
10132;SDS011;5106;50.926;7.080;2023-02-19T00:16:09;5.00;;;4.10;;
10132;SDS011;5106;50.926;7.080;2023-02-19T00:18:39;6.83;;;4.60;;
10132;SDS011;5106;50.926;7.080;2023-02-19T00:21:06;5.25;;;4.75;;
10132;SDS011;5106;50.926;7.080;2023-02-19T00:23:32;5.30;;;4.43;;
10132;SDS011;5106;50.926;7.080;2023-02-19T00:26:02;5.63;;;4.85;;
10132;SDS011;5106;50.926;7.080;2023-02-19T00:28:28;5.40;;;4.90;;
10132;SDS011;5106;50.926;7.080;2023-02-19T00:30:54;5.50;;;5.00;;
10132;SDS011;5106;50.926;7.080;2023-02-19T00:33:20;6.03;;;4.60;;
10132;SDS011;5106;50.926;7.080;2023-02-19T00:35:45;5.50;;;4.60;;
10132;SDS011;5106;50.926;7.080;2023-02-19T00:38:11;4.90;;;4.40;;
10132;SDS011;5106;50.926;7.080;2023-02-19T00:40:37;4.70;;;4.20;;
10132;SDS011;5106;50.926;7.080;2023-02-19T00:43:03;4.50;;;4.07;;
10132;SDS011;5106;50.926;7.080;2023-02-19T00:45:28;4.55;;;4.10;;
10132;SDS011;5106;50.926;7.080;2023-02-19T00:47:54;5.68;;;4.20;;
10132;SDS011;5106;50.926;7.080;2023-02-19T00:50:20;4.77;;;4.20;;
10132;SDS011;5106;50.926;7.080;2023-02-19T00:52:45;4.85;;;4.20;;
10132;SDS011;5106;50.926;7.080;2023-02-19T00:55:11;5.20;;;4.70;;
10132;SDS011;5106;50.926;7.080;2023-02-19T00:57:36;5.85;;;4.60;;
10132;SDS011;5106;50.926;7.080;2023-02-19T01:00:02;6.22;;;5.32;;
10132;SDS011;5106;50.926;7.080;2023-02-19T01:02:30;5.40;;;4.90;;
10132;SDS011;5106;50.926;7.080;2023-02-19T01:04:56;5.88;;;5.25;;
10132;SDS011;5106;50.926;7.080;2023-02-19T01:07:21;5.53;;;4.78;;
10132;SDS011;5106;50.926;7.080;2023-02-19T01:09:48;6.28;;;5.15;;
10132;SDS011;5106;50.926;7.080;2023-02-19T01:12:13;6.03;;;5.10;;
10132;SDS011;5106;50.926;7.080;2023-02-19T01:14:39;5.63;;;5.03;;
10132;SDS011;5106;50.926;7.080;2023-02-19T01:17:05;7.32;;;5.40;;
10132;SDS011;5106;50.926;7.080;2023-02-19T01:19:31;5.28;;;4.78;;
10132;SDS011;5106;50.926;7.080;2023-02-19T01:21:56;5.38;;;4.70;;
10132;SDS011;5106;50.926;7.080;2023-02-19T01:24:22;5.65;;;4.28;;
10132;SDS011;5106;50.926;7.080;2023-02-19T01:26:47;5.00;;;4.50;;
10132;SDS011;5106;50.926;7.080;2023-02-19T01:29:13;4.77;;;4.20;;
10132;SDS011;5106;50.926;7.080;2023-02-19T01:31:38;5.35;;;4.25;;
10132;SDS011;5106;50.926;7.080;2023-02-19T01:34:06;4.50;;;4.10;;
10132;SDS011;5106;50.926;7.080;2023-02-19T01:36:33;6.82;;;4.35;;
10132;SDS011;5106;50.926;7.080;2023-02-19T01:39:00;4.95;;;4.45;;
10132;SDS011;5106;50.926;7.080;2023-02-19T01:41:29;4.97;;;4.45;;
10132;SDS011;5106;50.926;7.080;2023-02-19T01:46:36;4.88;;;4.38;;
10132;SDS011;5106;50.926;7.080;2023-02-19T01:51:43;6.57;;;5.15;;
10132;SDS011;5106;50.926;7.080;2023-02-19T01:54:13;5.72;;;4.47;;
10132;SDS011;5106;50.926;7.080;2023-02-19T01:56:42;5.05;;;4.43;;
10132;SDS011;5106;50.926;7.080;2023-02-19T01:59:10;6.50;;;4.72;;
10132;SDS011;5106;50.926;7.080;2023-02-19T02:01:36;5.97;;;5.07;;
10132;SDS011;5106;50.926;7.080;2023-02-19T02:04:04;5.30;;;4.38;;
10132;SDS011;5106;50.926;7.080;2023-02-19T02:06:40;6.15;;;4.70;;
10132;SDS011;5106;50.926;7.080;2023-02-19T02:09:15;7.78;;;5.20;;
10132;SDS011;5106;50.926;7.080;2023-02-19T02:12:01;6.30;;;4.72;;
10132;SDS011;5106;50.926;7.080;2023-02-19T02:14:28;5.22;;;4.72;;
10132;SDS011;5106;50.926;7.080;2023-02-19T02:17:04;5.78;;;4.50;;
10132;SDS011;5106;50.926;7.080;2023-02-19T02:25:55;5.30;;;4.53;;
10132;SDS011;5106;50.926;7.080;2023-02-19T02:31:38;5.30;;;4.38;;
10132;SDS011;5106;50.926;7.080;2023-02-19T02:34:14;6.07;;;4.97;;
10132;SDS011;5106;50.926;7.080;2023-02-19T02:36:50;6.32;;;4.70;;
10132;SDS011;5106;50.926;7.080;2023-02-19T02:39:21;6.15;;;5.28;;
10132;SDS011;5106;50.926;7.080;2023-02-19T02:41:51;6.40;;;4.93;;
10132;SDS011;5106;50.926;7.080;2023-02-19T02:44:40;6.95;;;4.85;;
10132;SDS011;5106;50.926;7.080;2023-02-19T02:47:26;7.80;;;5.15;;
10132;SDS011;5106;50.926;7.080;2023-02-19T02:50:05;6.85;;;4.53;;
10132;SDS011;5106;50.926;7.080;2023-02-19T02:52:55;5.93;;;4.53;;
10132;SDS011;5106;50.926;7.080;2023-02-19T02:56:01;7.57;;;5.07;;
10132;SDS011;5106;50.926;7.080;2023-02-19T02:58:27;6.53;;;4.72;;
10132;SDS011;5106;50.926;7.080;2023-02-19T03:01:15;5.93;;;4.72;;
10132;SDS011;5106;50.926;7.080;2023-02-19T03:04:09;6.57;;;4.90;;
10132;SDS011;5106;50.926;7.080;2023-02-19T03:06:42;6.97;;;4.88;;
10132;SDS011;5106;50.926;7.080;2023-02-19T03:09:14;7.03;;;5.10;;
10132;SDS011;5106;50.926;7.080;2023-02-19T03:12:04;5.65;;;4.80;;
10132;SDS011;5106;50.926;7.080;2023-02-19T03:14:52;8.40;;;4.93;;
10132;SDS011;5106;50.926;7.080;2023-02-19T03:17:43;7.22;;;4.97;;
10132;SDS011;5106;50.926;7.080;2023-02-19T03:20:34;7.65;;;5.30;;
10132;SDS011;5106;50.926;7.080;2023-02-19T03:23:05;5.80;;;5.13;;
10132;SDS011;5106;50.926;7.080;2023-02-19T03:25:33;7.82;;;5.70;;
10132;SDS011;5106;50.926;7.080;2023-02-19T03:28:19;6.82;;;5.50;;
10132;SDS011;5106;50.926;7.080;2023-02-19T03:31:08;8.32;;;5.70;;
10132;SDS011;5106;50.926;7.080;2023-02-19T03:33:37;7.95;;;5.68;;
10132;SDS011;5106;50.926;7.080;2023-02-19T03:36:05;8.38;;;6.13;;
10132;SDS011;5106;50.926;7.080;2023-02-19T03:38:47;10.27;;;6.53;;
10132;SDS011;5106;50.926;7.080;2023-02-19T03:41:25;11.40;;;6.75;;
10132;SDS011;5106;50.926;7.080;2023-02-19T03:52:20;15.75;;;6.65;;
10132;SDS011;5106;50.926;7.080;2023-02-19T03:55:02;10.63;;;7.05;;
10132;SDS011;5106;50.926;7.080;2023-02-19T04:00:17;14.50;;;7.68;;
10132;SDS011;5106;50.926;7.080;2023-02-19T04:05:52;11.30;;;7.47;;
10132;SDS011;5106;50.926;7.080;2023-02-19T04:08:22;10.73;;;7.32;;
10132;SDS011;5106;50.926;7.080;2023-02-19T04:10:49;11.68;;;7.43;;
10132;SDS011;5106;50.926;7.080;2023-02-19T04:13:18;10.38;;;7.70;;
10132;SDS011;5106;50.926;7.080;2023-02-19T04:16:16;11.95;;;7.57;;
10132;SDS011;5106;50.926;7.080;2023-02-19T04:18:46;13.75;;;7.30;;
10132;SDS011;5106;50.926;7.080;2023-02-19T04:21:15;11.43;;;7.80;;
10132;SDS011;5106;50.926;7.080;2023-02-19T04:23:43;15.00;;;8.40;;
10132;SDS011;5106;50.926;7.080;2023-02-19T04:26:10;8.85;;;7.88;;
10132;SDS011;5106;50.926;7.080;2023-02-19T04:28:37;12.75;;;7.93;;
10132;SDS011;5106;50.926;7.080;2023-02-19T04:31:04;12.38;;;8.07;;
10132;SDS011;5106;50.926;7.080;2023-02-19T04:33:29;10.60;;;8.40;;
10132;SDS011;5106;50.926;7.080;2023-02-19T04:35:55;14.30;;;8.45;;
10132;SDS011;5106;50.926;7.080;2023-02-19T04:38:21;15.55;;;8.68;;
10132;SDS011;5106;50.926;7.080;2023-02-19T04:40:46;13.25;;;8.10;;
10132;SDS011;5106;50.926;7.080;2023-02-19T04:43:12;11.70;;;8.20;;
10132;SDS011;5106;50.926;7.080;2023-02-19T04:45:38;15.48;;;9.40;;
10132;SDS011;5106;50.926;7.080;2023-02-19T04:48:04;15.07;;;9.82;;
10132;SDS011;5106;50.926;7.080;2023-02-19T04:50:29;12.10;;;8.53;;
10132;SDS011;5106;50.926;7.080;2023-02-19T04:52:55;13.70;;;8.63;;
10132;SDS011;5106;50.926;7.080;2023-02-19T04:55:21;15.43;;;10.40;;
10132;SDS011;5106;50.926;7.080;2023-02-19T04:57:47;15.80;;;10.63;;
10132;SDS011;5106;50.926;7.080;2023-02-19T05:00:12;16.55;;;9.90;;
10132;SDS011;5106;50.926;7.080;2023-02-19T05:02:38;15.45;;;10.30;;
10132;SDS011;5106;50.926;7.080;2023-02-19T05:05:04;14.70;;;10.02;;
10132;SDS011;5106;50.926;7.080;2023-02-19T05:07:30;13.70;;;9.73;;
10132;SDS011;5106;50.926;7.080;2023-02-19T05:09:55;15.67;;;9.97;;
10132;SDS011;5106;50.926;7.080;2023-02-19T05:12:22;16.40;;;10.57;;
10132;SDS011;5106;50.926;7.080;2023-02-19T05:14:47;15.47;;;9.77;;
10132;SDS011;5106;50.926;7.080;2023-02-19T05:17:13;18.40;;;10.60;;
10132;SDS011;5106;50.926;7.080;2023-02-19T05:19:39;17.83;;;10.90;;
10132;SDS011;5106;50.926;7.080;2023-02-19T05:22:04;16.43;;;10.57;;
10132;SDS011;5106;50.926;7.080;2023-02-19T05:24:30;15.73;;;11.23;;
10132;SDS011;5106;50.926;7.080;2023-02-19T05:26:55;15.48;;;10.10;;
10132;SDS011;5106;50.926;7.080;2023-02-19T05:29:21;13.73;;;10.60;;
10132;SDS011;5106;50.926;7.080;2023-02-19T05:31:46;16.07;;;10.43;;
10132;SDS011;5106;50.926;7.080;2023-02-19T05:34:13;15.67;;;10.70;;
10132;SDS011;5106;50.926;7.080;2023-02-19T05:36:39;16.13;;;10.83;;
10132;SDS011;5106;50.926;7.080;2023-02-19T05:39:05;17.87;;;11.07;;
10132;SDS011;5106;50.926;7.080;2023-02-19T05:41:31;16.17;;;10.50;;
10132;SDS011;5106;50.926;7.080;2023-02-19T05:43:57;16.03;;;10.50;;
10132;SDS011;5106;50.926;7.080;2023-02-19T05:46:24;15.67;;;10.97;;
10132;SDS011;5106;50.926;7.080;2023-02-19T05:48:52;14.63;;;10.73;;
10132;SDS011;5106;50.926;7.080;2023-02-19T05:51:18;14.63;;;10.40;;
10132;SDS011;5106;50.926;7.080;2023-02-19T05:53:46;16.53;;;10.73;;
10132;SDS011;5106;50.926;7.080;2023-02-19T05:56:31;17.07;;;11.90;;
10132;SDS011;5106;50.926;7.080;2023-02-19T05:58:58;17.30;;;12.20;;
10132;SDS011;5106;50.926;7.080;2023-02-19T06:01:26;19.23;;;11.63;;
10132;SDS011;5106;50.926;7.080;2023-02-19T06:03:52;16.80;;;11.60;;
10132;SDS011;5106;50.926;7.080;2023-02-19T06:06:20;15.93;;;11.07;;
10132;SDS011;5106;50.926;7.080;2023-02-19T06:08:49;19.63;;;12.20;;
10132;SDS011;5106;50.926;7.080;2023-02-19T06:11:15;19.40;;;13.27;;
10132;SDS011;5106;50.926;7.080;2023-02-19T06:13:41;18.40;;;12.40;;
10132;SDS011;5106;50.926;7.080;2023-02-19T06:16:07;17.17;;;12.70;;
10132;SDS011;5106;50.926;7.080;2023-02-19T06:18:33;19.20;;;12.97;;
10132;SDS011;5106;50.926;7.080;2023-02-19T06:21:03;21.20;;;13.83;;
10132;SDS011;5106;50.926;7.080;2023-02-19T06:23:30;18.50;;;13.93;;
10132;SDS011;5106;50.926;7.080;2023-02-19T06:28:35;21.50;;;14.17;;
10132;SDS011;5106;50.926;7.080;2023-02-19T06:31:01;18.73;;;13.87;;
10132;SDS011;5106;50.926;7.080;2023-02-19T06:33:28;19.07;;;13.33;;
10132;SDS011;5106;50.926;7.080;2023-02-19T06:35:56;18.03;;;13.10;;
10132;SDS011;5106;50.926;7.080;2023-02-19T06:38:23;18.50;;;12.50;;
10132;SDS011;5106;50.926;7.080;2023-02-19T06:40:48;20.07;;;12.83;;
10132;SDS011;5106;50.926;7.080;2023-02-19T06:43:14;19.33;;;13.13;;
10132;SDS011;5106;50.926;7.080;2023-02-19T06:45:39;20.83;;;12.83;;
10132;SDS011;5106;50.926;7.080;2023-02-19T06:48:05;26.00;;;13.97;;
10132;SDS011;5106;50.926;7.080;2023-02-19T06:50:30;20.20;;;12.40;;
10132;SDS011;5106;50.926;7.080;2023-02-19T06:52:56;17.37;;;12.17;;
10132;SDS011;5106;50.926;7.080;2023-02-19T06:55:21;16.93;;;12.23;;
10132;SDS011;5106;50.926;7.080;2023-02-19T06:57:47;17.70;;;12.40;;
10132;SDS011;5106;50.926;7.080;2023-02-19T07:00:13;19.17;;;12.00;;
10132;SDS011;5106;50.926;7.080;2023-02-19T07:02:38;20.83;;;12.23;;
10132;SDS011;5106;50.926;7.080;2023-02-19T07:05:04;19.13;;;12.40;;
10132;SDS011;5106;50.926;7.080;2023-02-19T07:07:30;17.27;;;11.63;;
10132;SDS011;5106;50.926;7.080;2023-02-19T07:09:55;17.17;;;11.67;;
10132;SDS011;5106;50.926;7.080;2023-02-19T07:12:21;19.43;;;11.53;;
10132;SDS011;5106;50.926;7.080;2023-02-19T07:14:46;17.20;;;11.57;;
10132;SDS011;5106;50.926;7.080;2023-02-19T07:17:12;16.53;;;10.90;;
10132;SDS011;5106;50.926;7.080;2023-02-19T07:19:38;19.17;;;10.97;;
10132;SDS011;5106;50.926;7.080;2023-02-19T07:22:03;23.10;;;11.30;;
10132;SDS011;5106;50.926;7.080;2023-02-19T07:24:29;17.40;;;10.93;;
10132;SDS011;5106;50.926;7.080;2023-02-19T07:26:54;18.53;;;10.93;;
10132;SDS011;5106;50.926;7.080;2023-02-19T07:29:20;17.87;;;11.43;;
10132;SDS011;5106;50.926;7.080;2023-02-19T07:31:45;17.60;;;10.37;;
10132;SDS011;5106;50.926;7.080;2023-02-19T07:34:11;16.37;;;9.77;;
10132;SDS011;5106;50.926;7.080;2023-02-19T07:36:37;17.27;;;9.93;;
10132;SDS011;5106;50.926;7.080;2023-02-19T07:39:02;17.20;;;10.30;;
10132;SDS011;5106;50.926;7.080;2023-02-19T07:41:28;14.80;;;8.83;;
10132;SDS011;5106;50.926;7.080;2023-02-19T07:43:54;17.47;;;8.87;;
10132;SDS011;5106;50.926;7.080;2023-02-19T07:46:20;14.23;;;8.83;;
10132;SDS011;5106;50.926;7.080;2023-02-19T07:48:46;11.63;;;9.17;;
10132;SDS011;5106;50.926;7.080;2023-02-19T07:51:13;13.83;;;8.90;;
10132;SDS011;5106;50.926;7.080;2023-02-19T07:53:42;13.13;;;8.40;;
10132;SDS011;5106;50.926;7.080;2023-02-19T07:56:10;11.77;;;8.00;;
10132;SDS011;5106;50.926;7.080;2023-02-19T07:58:36;15.53;;;8.63;;
10132;SDS011;5106;50.926;7.080;2023-02-19T08:01:35;16.10;;;8.83;;
10132;SDS011;5106;50.926;7.080;2023-02-19T08:04:13;15.43;;;9.03;;
10132;SDS011;5106;50.926;7.080;2023-02-19T08:06:39;14.67;;;8.93;;
10132;SDS011;5106;50.926;7.080;2023-02-19T08:09:05;14.97;;;9.60;;
10132;SDS011;5106;50.926;7.080;2023-02-19T08:11:32;13.93;;;9.90;;
10132;SDS011;5106;50.926;7.080;2023-02-19T08:14:16;15.27;;;10.00;;
10132;SDS011;5106;50.926;7.080;2023-02-19T08:16:49;16.60;;;10.60;;
10132;SDS011;5106;50.926;7.080;2023-02-19T08:19:15;17.90;;;10.63;;
10132;SDS011;5106;50.926;7.080;2023-02-19T08:21:41;18.50;;;10.63;;
10132;SDS011;5106;50.926;7.080;2023-02-19T08:24:07;16.97;;;10.17;;
10132;SDS011;5106;50.926;7.080;2023-02-19T08:26:33;19.83;;;10.47;;
10132;SDS011;5106;50.926;7.080;2023-02-19T08:28:59;17.80;;;10.50;;
10132;SDS011;5106;50.926;7.080;2023-02-19T08:31:25;19.50;;;10.80;;
10132;SDS011;5106;50.926;7.080;2023-02-19T08:33:51;22.60;;;11.13;;
10132;SDS011;5106;50.926;7.080;2023-02-19T08:36:17;22.17;;;12.23;;
10132;SDS011;5106;50.926;7.080;2023-02-19T08:38:42;19.50;;;10.97;;
10132;SDS011;5106;50.926;7.080;2023-02-19T08:41:10;19.23;;;10.73;;
10132;SDS011;5106;50.926;7.080;2023-02-19T08:43:37;20.03;;;11.17;;
10132;SDS011;5106;50.926;7.080;2023-02-19T08:46:03;18.17;;;11.77;;
10132;SDS011;5106;50.926;7.080;2023-02-19T08:48:31;18.47;;;11.63;;
10132;SDS011;5106;50.926;7.080;2023-02-19T08:50:58;17.60;;;11.13;;
10132;SDS011;5106;50.926;7.080;2023-02-19T08:53:27;20.10;;;11.37;;
10132;SDS011;5106;50.926;7.080;2023-02-19T08:55:53;16.63;;;10.50;;
10132;SDS011;5106;50.926;7.080;2023-02-19T08:58:19;16.10;;;10.57;;
10132;SDS011;5106;50.926;7.080;2023-02-19T09:00:44;22.03;;;11.67;;
10132;SDS011;5106;50.926;7.080;2023-02-19T09:03:10;19.10;;;10.63;;
10132;SDS011;5106;50.926;7.080;2023-02-19T09:05:36;17.33;;;9.87;;
10132;SDS011;5106;50.926;7.080;2023-02-19T09:08:02;18.30;;;10.27;;
10132;SDS011;5106;50.926;7.080;2023-02-19T09:10:28;16.63;;;10.10;;
10132;SDS011;5106;50.926;7.080;2023-02-19T09:12:53;20.57;;;10.57;;
10132;SDS011;5106;50.926;7.080;2023-02-19T09:15:19;17.63;;;9.97;;
10132;SDS011;5106;50.926;7.080;2023-02-19T09:17:48;20.67;;;10.00;;
10132;SDS011;5106;50.926;7.080;2023-02-19T09:20:16;18.63;;;9.80;;
10132;SDS011;5106;50.926;7.080;2023-02-19T09:22:41;18.40;;;9.50;;
10132;SDS011;5106;50.926;7.080;2023-02-19T09:25:07;16.57;;;8.57;;
10132;SDS011;5106;50.926;7.080;2023-02-19T09:27:32;14.63;;;8.60;;
10132;SDS011;5106;50.926;7.080;2023-02-19T09:29:58;14.27;;;7.87;;
10132;SDS011;5106;50.926;7.080;2023-02-19T09:32:24;16.13;;;7.97;;
10132;SDS011;5106;50.926;7.080;2023-02-19T09:34:49;17.27;;;7.65;;
10132;SDS011;5106;50.926;7.080;2023-02-19T09:37:15;12.00;;;6.83;;
10132;SDS011;5106;50.926;7.080;2023-02-19T09:39:40;12.05;;;6.25;;
10132;SDS011;5106;50.926;7.080;2023-02-19T09:44:44;12.03;;;6.80;;
10132;SDS011;5106;50.926;7.080;2023-02-19T09:47:15;10.03;;;5.63;;
10132;SDS011;5106;50.926;7.080;2023-02-19T09:49:43;12.38;;;5.75;;
10132;SDS011;5106;50.926;7.080;2023-02-19T09:52:29;13.60;;;6.33;;
10132;SDS011;5106;50.926;7.080;2023-02-19T09:55:12;9.70;;;5.07;;
10132;SDS011;5106;50.926;7.080;2023-02-19T09:57:48;11.90;;;5.90;;
10132;SDS011;5106;50.926;7.080;2023-02-19T10:00:26;11.67;;;5.33;;
10132;SDS011;5106;50.926;7.080;2023-02-19T10:05:37;9.70;;;4.97;;
10132;SDS011;5106;50.926;7.080;2023-02-19T10:08:06;9.05;;;5.50;;
10132;SDS011;5106;50.926;7.080;2023-02-19T10:10:37;10.83;;;5.70;;
10132;SDS011;5106;50.926;7.080;2023-02-19T10:15:55;9.00;;;5.80;;
10132;SDS011;5106;50.926;7.080;2023-02-19T10:18:23;10.80;;;6.03;;
10132;SDS011;5106;50.926;7.080;2023-02-19T10:20:52;12.23;;;6.27;;
10132;SDS011;5106;50.926;7.080;2023-02-19T10:23:19;11.23;;;6.13;;
10132;SDS011;5106;50.926;7.080;2023-02-19T10:25:49;13.85;;;6.88;;
10132;SDS011;5106;50.926;7.080;2023-02-19T10:28:19;10.93;;;6.33;;
10132;SDS011;5106;50.926;7.080;2023-02-19T10:30:49;10.10;;;6.30;;
10132;SDS011;5106;50.926;7.080;2023-02-19T10:33:17;12.48;;;7.10;;
10132;SDS011;5106;50.926;7.080;2023-02-19T10:35:51;10.63;;;7.37;;
10132;SDS011;5106;50.926;7.080;2023-02-19T10:38:18;13.27;;;7.20;;
10132;SDS011;5106;50.926;7.080;2023-02-19T10:40:45;13.45;;;7.10;;
10132;SDS011;5106;50.926;7.080;2023-02-19T10:43:19;11.10;;;6.47;;
10132;SDS011;5106;50.926;7.080;2023-02-19T10:45:55;11.30;;;7.87;;
10132;SDS011;5106;50.926;7.080;2023-02-19T10:48:35;10.87;;;6.90;;
10132;SDS011;5106;50.926;7.080;2023-02-19T10:51:06;10.50;;;6.90;;
10132;SDS011;5106;50.926;7.080;2023-02-19T10:53:44;13.23;;;6.90;;
10132;SDS011;5106;50.926;7.080;2023-02-19T10:56:12;12.27;;;6.50;;
10132;SDS011;5106;50.926;7.080;2023-02-19T10:58:40;7.72;;;6.32;;
10132;SDS011;5106;50.926;7.080;2023-02-19T11:01:13;11.10;;;6.10;;
10132;SDS011;5106;50.926;7.080;2023-02-19T11:03:42;7.75;;;5.07;;
10132;SDS011;5106;50.926;7.080;2023-02-19T11:06:08;8.63;;;5.72;;
10132;SDS011;5106;50.926;7.080;2023-02-19T11:08:44;7.70;;;5.80;;
10132;SDS011;5106;50.926;7.080;2023-02-19T11:11:32;7.95;;;5.60;;
10132;SDS011;5106;50.926;7.080;2023-02-19T11:14:01;11.87;;;5.70;;
10132;SDS011;5106;50.926;7.080;2023-02-19T11:17:08;9.50;;;5.77;;
10132;SDS011;5106;50.926;7.080;2023-02-19T11:19:42;12.40;;;6.10;;
10132;SDS011;5106;50.926;7.080;2023-02-19T11:22:18;10.87;;;5.87;;
10132;SDS011;5106;50.926;7.080;2023-02-19T11:24:48;8.30;;;5.43;;
10132;SDS011;5106;50.926;7.080;2023-02-19T11:27:19;8.52;;;5.43;;
10132;SDS011;5106;50.926;7.080;2023-02-19T11:29:46;8.20;;;5.88;;
10132;SDS011;5106;50.926;7.080;2023-02-19T11:34:44;8.63;;;5.47;;
10132;SDS011;5106;50.926;7.080;2023-02-19T11:37:12;10.87;;;5.30;;
10132;SDS011;5106;50.926;7.080;2023-02-19T11:39:39;8.23;;;5.38;;
10132;SDS011;5106;50.926;7.080;2023-02-19T11:44:50;8.50;;;4.60;;
10132;SDS011;5106;50.926;7.080;2023-02-19T11:47:41;9.25;;;4.90;;
10132;SDS011;5106;50.926;7.080;2023-02-19T11:53:08;10.55;;;5.45;;
10132;SDS011;5106;50.926;7.080;2023-02-19T12:01:18;9.77;;;5.40;;
10132;SDS011;5106;50.926;7.080;2023-02-19T12:29:35;9.82;;;5.93;;
10132;SDS011;5106;50.926;7.080;2023-02-19T12:37:52;8.13;;;6.45;;
10132;SDS011;5106;50.926;7.080;2023-02-19T12:43:32;7.88;;;5.47;;
10132;SDS011;5106;50.926;7.080;2023-02-19T12:50:57;9.45;;;4.70;;
10132;SDS011;5106;50.926;7.080;2023-02-19T12:55:57;7.30;;;5.65;;
10132;SDS011;5106;50.926;7.080;2023-02-19T12:58:28;9.30;;;5.13;;
10132;SDS011;5106;50.926;7.080;2023-02-19T13:01:01;6.22;;;4.30;;
10132;SDS011;5106;50.926;7.080;2023-02-19T13:03:31;7.50;;;4.18;;
10132;SDS011;5106;50.926;7.080;2023-02-19T13:11:24;5.78;;;3.30;;
10132;SDS011;5106;50.926;7.080;2023-02-19T13:13:56;8.23;;;3.53;;
10132;SDS011;5106;50.926;7.080;2023-02-19T13:16:27;3.55;;;2.83;;
10132;SDS011;5106;50.926;7.080;2023-02-19T13:18:59;6.68;;;2.97;;
10132;SDS011;5106;50.926;7.080;2023-02-19T13:21:28;4.65;;;3.17;;
10132;SDS011;5106;50.926;7.080;2023-02-19T13:24:36;5.13;;;3.50;;
10132;SDS011;5106;50.926;7.080;2023-02-19T13:27:24;5.00;;;3.53;;
10132;SDS011;5106;50.926;7.080;2023-02-19T13:33:10;7.22;;;4.50;;
10132;SDS011;5106;50.926;7.080;2023-02-19T13:38:35;6.28;;;4.50;;
10132;SDS011;5106;50.926;7.080;2023-02-19T13:41:03;8.18;;;5.15;;
10132;SDS011;5106;50.926;7.080;2023-02-19T13:43:30;7.10;;;4.93;;
10132;SDS011;5106;50.926;7.080;2023-02-19T13:46:07;6.23;;;4.63;;
10132;SDS011;5106;50.926;7.080;2023-02-19T13:48:38;7.55;;;5.18;;
10132;SDS011;5106;50.926;7.080;2023-02-19T14:14:40;3.50;;;2.23;;
10132;SDS011;5106;50.926;7.080;2023-02-19T14:28:29;8.07;;;3.87;;
10132;SDS011;5106;50.926;7.080;2023-02-19T14:33:34;5.43;;;4.30;;
10132;SDS011;5106;50.926;7.080;2023-02-19T14:36:05;5.60;;;4.60;;
10132;SDS011;5106;50.926;7.080;2023-02-19T14:38:49;7.53;;;4.40;;
10132;SDS011;5106;50.926;7.080;2023-02-19T14:41:20;8.83;;;4.77;;
10132;SDS011;5106;50.926;7.080;2023-02-19T14:43:47;6.43;;;4.78;;
10132;SDS011;5106;50.926;7.080;2023-02-19T14:46:22;6.67;;;4.90;;
10132;SDS011;5106;50.926;7.080;2023-02-19T14:48:49;7.20;;;5.03;;
10132;SDS011;5106;50.926;7.080;2023-02-19T14:51:22;7.57;;;5.50;;
10132;SDS011;5106;50.926;7.080;2023-02-19T14:53:56;7.43;;;5.13;;
10132;SDS011;5106;50.926;7.080;2023-02-19T14:56:27;7.28;;;5.63;;
10132;SDS011;5106;50.926;7.080;2023-02-19T15:01:38;13.37;;;7.60;;
10132;SDS011;5106;50.926;7.080;2023-02-19T15:04:04;10.87;;;7.27;;
10132;SDS011;5106;50.926;7.080;2023-02-19T15:06:31;10.27;;;6.80;;
10132;SDS011;5106;50.926;7.080;2023-02-19T15:09:01;10.77;;;6.77;;
10132;SDS011;5106;50.926;7.080;2023-02-19T15:11:30;10.87;;;6.83;;
10132;SDS011;5106;50.926;7.080;2023-02-19T15:14:01;11.33;;;7.40;;
10132;SDS011;5106;50.926;7.080;2023-02-19T15:16:29;10.03;;;7.60;;
10132;SDS011;5106;50.926;7.080;2023-02-19T15:18:57;12.73;;;8.27;;
10132;SDS011;5106;50.926;7.080;2023-02-19T15:21:24;13.30;;;8.47;;
10132;SDS011;5106;50.926;7.080;2023-02-19T15:23:56;11.13;;;9.03;;
10132;SDS011;5106;50.926;7.080;2023-02-19T15:26:27;12.00;;;9.03;;
10132;SDS011;5106;50.926;7.080;2023-02-19T15:29:11;15.10;;;9.60;;
10132;SDS011;5106;50.926;7.080;2023-02-19T15:31:45;13.70;;;10.17;;
10132;SDS011;5106;50.926;7.080;2023-02-19T15:34:17;15.13;;;11.10;;
10132;SDS011;5106;50.926;7.080;2023-02-19T15:36:45;15.63;;;10.43;;
10132;SDS011;5106;50.926;7.080;2023-02-19T15:39:15;12.80;;;8.40;;
10132;SDS011;5106;50.926;7.080;2023-02-19T15:42:08;9.90;;;7.87;;
10132;SDS011;5106;50.926;7.080;2023-02-19T15:44:47;11.73;;;7.67;;
10132;SDS011;5106;50.926;7.080;2023-02-19T15:47:36;15.07;;;8.03;;
10132;SDS011;5106;50.926;7.080;2023-02-19T15:50:04;11.27;;;7.67;;
10132;SDS011;5106;50.926;7.080;2023-02-19T15:55:21;12.10;;;8.50;;
10132;SDS011;5106;50.926;7.080;2023-02-19T15:57:53;10.40;;;7.87;;
10132;SDS011;5106;50.926;7.080;2023-02-19T16:00:36;12.60;;;8.27;;
10132;SDS011;5106;50.926;7.080;2023-02-19T16:03:16;12.77;;;8.20;;
10132;SDS011;5106;50.926;7.080;2023-02-19T16:05:43;11.30;;;8.30;;
10132;SDS011;5106;50.926;7.080;2023-02-19T16:10:35;15.33;;;8.63;;
10132;SDS011;5106;50.926;7.080;2023-02-19T16:13:01;16.63;;;8.80;;
10132;SDS011;5106;50.926;7.080;2023-02-19T16:15:29;11.47;;;7.83;;
10132;SDS011;5106;50.926;7.080;2023-02-19T16:17:56;10.63;;;7.17;;
10132;SDS011;5106;50.926;7.080;2023-02-19T16:20:23;9.23;;;7.23;;
10132;SDS011;5106;50.926;7.080;2023-02-19T16:22:55;11.43;;;7.43;;
10132;SDS011;5106;50.926;7.080;2023-02-19T16:28:17;10.17;;;7.40;;
10132;SDS011;5106;50.926;7.080;2023-02-19T16:30:45;11.17;;;7.17;;
10132;SDS011;5106;50.926;7.080;2023-02-19T16:33:21;8.97;;;7.03;;
10132;SDS011;5106;50.926;7.080;2023-02-19T16:46:52;12.97;;;7.40;;
10132;SDS011;5106;50.926;7.080;2023-02-19T16:49:30;8.97;;;6.53;;
10132;SDS011;5106;50.926;7.080;2023-02-19T16:51:57;12.00;;;6.77;;
10132;SDS011;5106;50.926;7.080;2023-02-19T16:54:24;9.57;;;6.87;;
10132;SDS011;5106;50.926;7.080;2023-02-19T16:56:49;10.87;;;6.63;;
10132;SDS011;5106;50.926;7.080;2023-02-19T16:59:15;13.80;;;6.97;;
10132;SDS011;5106;50.926;7.080;2023-02-19T17:01:40;10.80;;;7.13;;
10132;SDS011;5106;50.926;7.080;2023-02-19T17:04:07;11.13;;;7.20;;
10132;SDS011;5106;50.926;7.080;2023-02-19T17:06:34;11.50;;;7.77;;
10132;SDS011;5106;50.926;7.080;2023-02-19T17:09:04;11.60;;;7.97;;
10132;SDS011;5106;50.926;7.080;2023-02-19T17:11:32;9.77;;;7.60;;
10132;SDS011;5106;50.926;7.080;2023-02-19T17:13:58;11.03;;;7.90;;
10132;SDS011;5106;50.926;7.080;2023-02-19T17:16:25;13.37;;;8.80;;
10132;SDS011;5106;50.926;7.080;2023-02-19T17:18:53;11.67;;;8.43;;
10132;SDS011;5106;50.926;7.080;2023-02-19T17:21:20;14.40;;;9.37;;
10132;SDS011;5106;50.926;7.080;2023-02-19T17:23:49;11.23;;;9.20;;
10132;SDS011;5106;50.926;7.080;2023-02-19T17:26:15;12.00;;;9.10;;
10132;SDS011;5106;50.926;7.080;2023-02-19T17:28:43;12.17;;;9.03;;
10132;SDS011;5106;50.926;7.080;2023-02-19T17:31:09;13.83;;;10.00;;
10132;SDS011;5106;50.926;7.080;2023-02-19T17:33:36;11.90;;;9.00;;
10132;SDS011;5106;50.926;7.080;2023-02-19T17:36:02;12.70;;;9.80;;
10132;SDS011;5106;50.926;7.080;2023-02-19T17:38:28;14.13;;;10.00;;
10132;SDS011;5106;50.926;7.080;2023-02-19T17:40:54;11.67;;;9.77;;
10132;SDS011;5106;50.926;7.080;2023-02-19T17:43:20;14.13;;;9.70;;
10132;SDS011;5106;50.926;7.080;2023-02-19T17:45:45;11.70;;;9.07;;
10132;SDS011;5106;50.926;7.080;2023-02-19T17:48:11;15.97;;;9.20;;
10132;SDS011;5106;50.926;7.080;2023-02-19T17:50:38;12.67;;;9.00;;
10132;SDS011;5106;50.926;7.080;2023-02-19T17:53:03;11.50;;;8.50;;